.
WxDataArchive / Data Records for 2008-02-15
2008-02-14 February 2008 2008-02-16

Data Records for Friday, 15 February 2008

Time	Temp	Chill	HIndex	Humid	Dewpt	 Wind 	HiWind	WindDir	Rain 	Barom 
-----	----	-----	------	-----	-----	------	------	-------	-----	----- 
00:00	32.8	32.8	32.8	75	25.8	2	6	248	0.00	29.940 
00:05	32.8	32.8	32.8	75	25.8	2	7	248	0.00	29.942 
00:10	32.8	32.8	32.8	75	25.8	2	7	248	0.00	29.948 
00:15	32.9	32.9	32.9	75	25.9	3	12	248	0.00	29.951 
00:20	32.9	32.9	32.9	75	25.9	2	5	225	0.00	29.953 
00:25	32.9	32.9	32.9	75	25.9	3	7	248	0.00	29.952 
00:30	32.9	32.9	32.9	75	25.9	2	5	248	0.00	29.953 
00:35	33.1	33.1	33.1	75	26.1	1	3	225	0.00	29.953 
00:40	33.1	33.1	33.1	75	26.1	2	6	248	0.00	29.952 
00:45	33.1	33.1	33.1	75	26.1	2	5	248	0.00	29.949 
00:50	33.2	33.2	33.2	76	26.5	2	8	248	0.00	29.948 
00:55	33.2	33.2	33.2	76	26.5	1	6	248	0.00	29.950 
01:00	33.2	33.2	33.2	76	26.5	2	7	248	0.00	29.952 
01:05	33.2	33.2	33.2	76	26.5	2	9	248	0.00	29.952 
01:10	33.4	33.4	33.4	76	26.7	2	6	248	0.00	29.951 
01:15	33.4	33.4	33.4	76	26.7	2	4	248	0.00	29.952 
01:20	33.5	33.5	33.5	77	27.1	2	7	248	0.00	29.953 
01:25	33.7	33.7	33.7	77	27.3	2	5	248	0.00	29.954 
01:30	33.7	33.7	33.7	77	27.3	1	5	248	0.00	29.954 
01:35	33.8	33.8	33.8	77	27.4	2	5	248	0.00	29.955 
01:40	34.0	34.0	34.0	77	27.6	2	4	248	0.00	29.958 
01:45	34.1	34.1	34.1	77	27.7	3	6	248	0.00	29.964 
01:50	34.3	34.3	34.3	77	27.9	2	5	248	0.00	29.966 
01:55	34.4	34.4	34.4	77	27.9	3	6	248	0.00	29.967 
02:00	34.6	34.6	34.6	77	28.1	2	4	248	0.00	29.968 
02:05	34.6	34.6	34.6	77	28.1	2	4	248	0.00	29.968 
02:10	34.7	34.7	34.7	77	28.2	2	6	270	0.00	29.966 
02:15	34.6	34.6	34.6	77	28.1	2	4	270	0.00	29.972 
02:20	34.6	34.6	34.6	77	28.1	2	6	248	0.00	29.976 
02:25	34.6	34.6	34.6	77	28.1	3	7	270	0.00	29.977 
02:30	34.6	34.6	34.6	77	28.1	3	9	248	0.00	29.980 
02:35	34.4	34.4	34.4	77	27.9	2	6	270	0.00	29.984 
02:40	34.4	34.4	34.4	78	28.3	2	5	270	0.00	29.987 
02:45	34.3	34.3	34.3	78	28.2	2	4	248	0.00	29.983 
02:50	34.3	34.3	34.3	78	28.2	2	7	270	0.00	29.983 
02:55	34.3	34.3	34.3	79	28.5	2	7	270	0.00	29.984 
03:00	34.3	34.3	34.3	79	28.5	2	6	248	0.00	29.986 
03:05	34.3	34.3	34.3	80	28.8	2	5	248	0.00	29.983 
03:10	34.1	34.1	34.1	80	28.6	2	5	270	0.00	29.984 
03:15	34.1	34.1	34.1	80	28.6	2	4	270	0.00	29.986 
03:20	34.1	34.1	34.1	81	28.9	2	5	248	0.00	29.987 
03:25	34.1	34.1	34.1	81	28.9	1	3	270	0.00	29.992 
03:30	34.1	34.1	34.1	81	28.9	1	5	248	0.00	29.994 
03:35	34.1	34.1	34.1	81	28.9	1	5	292	0.00	29.995 
03:40	34.1	34.1	34.1	81	28.9	1	3	270	0.00	29.995 
03:45	34.1	34.1	34.1	82	29.2	1	3	270	0.00	29.997 
03:50	34.1	34.1	34.1	82	29.2	2	5	270	0.00	30.000 
03:55	34.1	34.1	34.1	82	29.2	3	5	270	0.00	30.005 
04:00	34.0	34.0	34.0	83	29.4	2	7	270	0.00	30.007 
04:05	34.0	34.0	34.0	83	29.4	2	5	270	0.00	30.011 
04:10	33.8	33.8	33.8	83	29.2	1	3	270	0.00	30.015 
04:15	33.5	33.5	33.5	84	29.2	2	5	292	0.00	30.017 
04:20	33.2	33.2	33.2	84	28.9	2	6	292	0.00	30.023 
04:25	33.1	33.1	33.1	84	28.8	2	6	270	0.00	30.026 
04:30	32.9	32.9	32.9	84	28.6	2	5	270	0.00	30.028 
04:35	32.7	32.7	32.7	84	28.4	1	4	270	0.00	30.029 
04:40	32.5	32.5	32.5	84	28.2	2	6	315	0.00	30.032 
04:45	32.5	32.5	32.5	84	28.2	2	6	315	0.00	30.037 
04:50	32.5	32.5	32.5	84	28.2	2	4	315	0.00	30.041 
04:55	32.4	32.4	32.4	84	28.1	2	7	338	0.00	30.042 
05:00	32.2	32.2	32.2	83	27.6	2	5	315	0.00	30.046 
05:05	32.1	32.1	32.1	83	27.5	2	3	292	0.00	30.048 
05:10	32.1	32.1	32.1	82	27.2	2	7	270	0.00	30.054 
05:15	31.9	31.9	31.9	82	27.0	2	7	270	0.00	30.059 
05:20	31.9	31.9	31.9	82	27.0	1	3	292	0.00	30.060 
05:25	31.8	31.8	31.8	82	26.9	1	3	292	0.00	30.062 
05:30	31.8	31.8	31.8	82	26.9	1	4	292	0.00	30.073 
05:35	31.8	31.8	31.8	82	26.9	1	5	292	0.00	30.077 
05:40	31.5	31.5	31.5	82	26.7	2	7	0	0.00	30.080 
05:45	31.3	31.3	31.3	82	26.5	2	5	292	0.00	30.086 
05:50	31.2	31.2	31.2	82	26.4	1	3	292	0.00	30.089 
05:55	31.0	31.0	31.0	82	26.2	2	10	292	0.00	30.092 
06:00	30.9	30.9	30.9	83	26.4	2	11	315	0.00	30.095 
06:05	30.7	30.7	30.7	83	26.2	2	6	292	0.00	30.095 
06:10	30.4	30.4	30.4	83	25.9	2	6	292	0.00	30.103 
06:15	30.3	30.3	30.3	81	25.2	2	6	315	0.00	30.108 
06:20	30.1	30.1	30.1	80	24.7	1	4	270	0.00	30.110 
06:25	30.1	30.1	30.1	79	24.4	1	4	292	0.00	30.112 
06:30	30.0	30.0	30.0	79	24.3	1	4	270	0.00	30.114 
06:35	30.0	30.0	30.0	79	24.3	1	2	315	0.00	30.118 
06:40	30.0	30.0	30.0	78	24.0	0	2	315	0.00	30.124 
06:45	30.0	30.0	30.0	78	24.0	0	2	292	0.00	30.127 
06:50	30.0	30.0	30.0	77	23.7	1	3	292	0.00	30.128 
06:55	30.0	30.0	30.0	77	23.7	1	2	315	0.00	30.133 
07:00	30.0	30.0	30.0	77	23.7	1	3	292	0.00	30.140 
07:05	30.0	30.0	30.0	77	23.7	0	2	248	0.00	30.141 
07:10	29.8	29.8	29.8	77	23.5	1	3	338	0.00	30.142 
07:15	29.8	29.8	29.8	77	23.5	0	3	315	0.00	30.143 
07:20	29.8	29.8	29.8	77	23.5	1	3	270	0.00	30.145 
07:25	29.8	29.8	29.8	77	23.5	1	3	248	0.00	30.147 
07:30	29.8	29.8	29.8	77	23.5	0	1	315	0.00	30.146 
07:35	29.7	29.7	29.7	76	23.1	1	2	292	0.00	30.153 
07:40	29.7	29.7	29.7	76	23.1	0	2	315	0.00	30.158 
07:45	29.7	29.7	29.7	76	23.1	1	2	315	0.00	30.159 
07:50	29.7	29.7	29.7	77	23.4	0	2	248	0.00	30.162 
07:55	29.7	29.7	29.7	77	23.4	1	2	248	0.00	30.165 
08:00	29.7	29.7	29.7	77	23.4	0	2	248	0.00	30.169 
08:05	29.7	29.7	29.7	77	23.4	1	3	248	0.00	30.173 
08:10	29.7	29.7	29.7	76	23.1	1	5	248	0.00	30.174 
08:15	29.7	29.7	29.7	76	23.1	0	2	292	0.00	30.175 
08:20	29.7	29.7	29.7	76	23.1	0	1	292	0.00	30.178 
08:25	29.7	29.7	29.7	76	23.1	0	1	292	0.00	30.181 
08:30	29.7	29.7	29.7	76	23.1	1	3	292	0.00	30.188 
08:35	29.7	29.7	29.7	76	23.1	1	3	315	0.00	30.189 
08:40	29.8	29.8	29.8	76	23.2	1	4	270	0.00	30.192 
08:45	29.8	29.8	29.8	76	23.2	1	3	315	0.00	30.192 
08:50	30.0	30.0	30.0	75	23.1	2	4	248	0.00	30.197 
08:55	30.0	30.0	30.0	75	23.1	1	3	248	0.00	30.199 
09:00	30.0	30.0	30.0	75	23.1	1	3	248	0.00	30.202 
09:05	30.1	30.1	30.1	75	23.2	1	3	338	0.00	30.201 
09:10	30.1	30.1	30.1	74	22.8	2	4	338	0.00	30.204 
09:15	30.1	30.1	30.1	74	22.8	2	4	338	0.00	30.206 
09:20	30.1	30.1	30.1	74	22.8	2	6	292	0.00	30.207 
09:25	30.3	30.3	30.3	73	22.7	1	3	248	0.00	30.211 
09:30	30.3	30.3	30.3	71	22.0	1	5	338	0.00	30.215 
09:35	30.3	30.3	30.3	70	21.7	1	4	338	0.00	30.216 
09:40	30.3	30.3	30.3	68	21.0	2	4	338	0.00	30.218 
09:45	30.4	30.4	30.4	69	21.5	1	3	315	0.00	30.217 
09:50	30.9	30.9	30.9	69	21.9	2	7	270	0.00	30.218 
09:55	31.0	31.0	31.0	67	21.3	1	4	315	0.00	30.219 
10:00	31.0	31.0	31.0	66	21.0	1	3	315	0.00	30.221 
10:05	31.2	31.2	31.2	65	20.8	1	4	270	0.00	30.221 
10:10	31.5	31.5	31.5	63	20.4	2	6	292	0.00	30.222 
10:15	31.6	31.6	31.6	63	20.5	2	6	270	0.00	30.221 
10:20	31.8	31.8	31.8	63	20.7	1	4	338	0.00	30.221 
10:25	32.1	32.1	32.1	62	20.6	2	5	270	0.00	30.227 
10:30	32.1	32.1	32.1	62	20.6	2	5	270	0.00	30.229 
10:35	32.5	32.5	32.5	61	20.6	1	3	315	0.00	30.229 
10:40	32.9	32.9	32.9	60	20.6	2	5	315	0.00	30.231 
10:45	32.5	32.5	32.5	61	20.6	2	5	315	0.00	30.231 
10:50	31.9	31.9	31.9	61	20.0	3	7	248	0.00	30.232 
10:55	31.5	31.5	31.5	63	20.4	2	4	292	0.00	30.232 
11:00	31.9	31.9	31.9	63	20.8	1	4	292	0.00	30.235 
11:05	31.5	31.5	31.5	63	20.4	2	6	292	0.00	30.239 
11:10	31.2	31.2	31.2	64	20.5	2	5	0	0.00	30.245 
11:15	31.5	31.5	31.5	64	20.7	2	6	270	0.00	30.248 
11:20	31.9	31.9	31.9	65	21.5	1	4	292	0.01	30.250 
11:25	32.2	32.2	32.2	63	21.0	2	4	270	0.00	30.252 
11:30	31.9	31.9	31.9	63	20.8	1	4	270	0.00	30.254 
11:35	31.6	31.6	31.6	64	20.8	2	5	270	0.00	30.254 
11:40	31.2	31.2	31.2	65	20.8	2	3	270	0.00	30.256 
11:45	31.2	31.2	31.2	65	20.8	2	4	315	0.00	30.255 
11:50	31.2	31.2	31.2	65	20.8	2	5	248	0.00	30.255 
11:55	31.3	31.3	31.3	63	20.2	2	5	292	0.00	30.252 
12:00	31.5	31.5	31.5	64	20.7	2	5	270	0.00	30.251 
12:05	31.0	31.0	31.0	65	20.6	2	4	315	0.00	30.255 
12:10	31.2	31.2	31.2	65	20.8	2	5	292	0.00	30.254 
12:15	31.5	31.5	31.5	65	21.1	2	5	270	0.00	30.256 
12:20	31.5	31.5	31.5	66	21.5	2	5	270	0.00	30.259 
12:25	31.2	31.2	31.2	65	20.8	2	6	315	0.00	30.251 
12:30	30.7	30.7	30.7	66	20.7	2	4	315	0.00	30.250 
12:35	31.0	31.0	31.0	67	21.3	1	4	270	0.00	30.249 
12:40	31.0	31.0	31.0	65	20.6	2	6	270	0.00	30.250 
12:45	30.7	30.7	30.7	66	20.7	1	3	292	0.00	30.251 
12:50	30.6	30.6	30.6	66	20.6	1	3	292	0.00	30.252 
12:55	30.4	30.4	30.4	66	20.4	1	4	292	0.00	30.263 
13:00	30.0	30.0	30.0	67	20.4	2	5	315	0.00	30.265 
13:05	30.0	30.0	30.0	67	20.4	1	2	315	0.00	30.262 
13:10	30.0	30.0	30.0	67	20.4	2	6	315	0.00	30.264 
13:15	30.0	30.0	30.0	67	20.4	1	5	338	0.00	30.266 
13:20	30.3	30.3	30.3	62	18.9	2	5	270	0.00	30.268 
13:25	30.7	30.7	30.7	61	18.9	2	5	270	0.00	30.266 
13:30	31.0	31.0	31.0	62	19.5	2	8	270	0.01	30.263 
13:35	31.2	31.2	31.2	64	20.5	3	8	270	0.00	30.263 
13:40	31.0	31.0	31.0	63	19.9	2	5	270	0.00	30.264 
13:45	30.7	30.7	30.7	62	19.2	3	5	270	0.00	30.265 
13:50	30.9	30.9	30.9	62	19.4	2	5	270	0.00	30.266 
13:55	30.6	30.6	30.6	61	18.8	3	7	270	0.00	30.268 
14:00	30.7	30.7	30.7	63	19.6	2	4	270	0.00	30.266 
14:05	30.6	30.6	30.6	62	19.2	2	4	270	0.00	30.266 
14:10	30.4	30.4	30.4	64	19.7	3	9	270	0.00	30.266 
14:15	30.1	30.1	30.1	63	19.0	2	5	270	0.00	30.265 
14:20	30.4	30.4	30.4	64	19.7	2	4	315	0.00	30.265 
14:25	31.2	31.2	31.2	62	19.7	2	6	292	0.00	30.263 
14:30	31.3	31.3	31.3	63	20.2	2	5	270	0.00	30.263 
14:35	30.9	30.9	30.9	63	19.8	2	7	270	0.00	30.265 
14:40	30.7	30.7	30.7	63	19.6	2	7	270	0.00	30.267 
14:45	30.3	30.3	30.3	63	19.2	2	5	270	0.00	30.266 
14:50	30.0	30.0	30.0	64	19.3	2	4	248	0.00	30.270 
14:55	29.7	29.7	29.7	65	19.4	1	4	270	0.00	30.269 
15:00	29.4	29.4	29.4	64	18.8	2	5	270	0.00	30.268 
15:05	29.1	29.1	29.1	65	18.8	2	4	270	0.00	30.268 
15:10	29.1	29.1	29.1	65	18.8	2	4	270	0.00	30.269 
15:15	29.0	29.0	29.0	65	18.7	2	6	270	0.00	30.268 
15:20	28.8	28.8	28.8	66	18.9	1	4	292	0.00	30.269 
15:25	28.7	28.7	28.7	65	18.4	1	4	338	0.00	30.271 
15:30	28.5	28.5	28.5	65	18.3	1	4	0	0.00	30.270 
15:35	28.7	28.7	28.7	66	18.8	1	5	292	0.00	30.272 
15:40	28.4	28.4	28.4	65	18.2	1	4	292	0.00	30.270 
15:45	28.5	28.5	28.5	65	18.3	0	3	270	0.00	30.268 
15:50	28.5	28.5	28.5	64	17.9	1	2	338	0.00	30.268 
15:55	28.5	28.5	28.5	65	18.3	1	3	292	0.00	30.268 
16:00	28.5	28.5	28.5	64	17.9	1	3	292	0.00	30.269 
16:05	28.7	28.7	28.7	64	18.1	1	7	270	0.00	30.273 
16:10	28.5	28.5	28.5	63	17.5	2	5	338	0.00	30.276 
16:15	28.4	28.4	28.4	62	17.1	2	7	270	0.00	30.274 
16:20	28.2	28.2	28.2	62	16.9	2	7	338	0.00	30.273 
16:25	28.2	28.2	28.2	62	16.9	2	6	270	0.00	30.276 
16:30	28.2	28.2	28.2	62	16.9	1	4	315	0.00	30.279 
16:35	28.2	28.2	28.2	62	16.9	1	4	315	0.00	30.278 
16:40	28.1	28.1	28.1	63	17.2	1	5	270	0.00	30.282 
16:45	27.9	27.9	27.9	63	17.0	1	3	292	0.00	30.284 
16:50	27.8	27.8	27.8	63	16.9	1	3	315	0.00	30.285 
16:55	27.6	27.6	27.6	64	17.0	1	3	292	0.00	30.284 
17:00	27.3	27.3	27.3	64	16.8	1	6	315	0.00	30.283 
17:05	27.2	27.2	27.2	64	16.7	1	5	270	0.00	30.286 
17:10	27.0	27.0	27.0	65	16.8	1	3	292	0.00	30.287 
17:15	27.0	27.0	27.0	65	16.8	1	4	338	0.00	30.285 
17:20	27.0	27.0	27.0	65	16.8	0	2	338	0.00	30.285 
17:25	26.9	26.9	26.9	65	16.7	1	6	338	0.00	30.286 
17:30	26.9	26.9	26.9	65	16.7	1	4	292	0.00	30.286 
17:35	26.7	26.7	26.7	65	16.5	1	4	292	0.00	30.286 
17:40	26.7	26.7	26.7	66	16.9	0	3	315	0.00	30.287 
17:45	26.6	26.6	26.6	66	16.8	0	5	292	0.00	30.288 
17:50	26.4	26.4	26.4	67	17.0	1	2	315	0.00	30.292 
17:55	26.1	26.1	26.1	67	16.7	0	2	315	0.00	30.291 
18:00	26.0	26.0	26.0	67	16.6	0	1	315	0.00	30.295 
18:05	25.8	25.8	25.8	68	16.7	0	2	315	0.00	30.296 
18:10	25.7	25.7	25.7	68	16.6	0	2	315	0.00	30.297 
18:15	25.6	25.6	25.6	68	16.5	0	1	315	0.00	30.298 
18:20	25.4	25.4	25.4	68	16.3	0	1	315	0.00	30.303 
18:25	25.4	25.4	25.4	68	16.3	0	2	315	0.00	30.303 
18:30	25.4	25.4	25.4	68	16.3	0	2	315	0.00	30.304 
18:35	25.3	25.3	25.3	67	15.9	0	2	315	0.00	30.306 
18:40	25.1	25.1	25.1	66	15.4	0	2	315	0.00	30.309 
18:45	25.1	25.1	25.1	66	15.4	0	2	315	0.00	30.309 
18:50	25.0	25.0	25.0	66	15.3	0	2	315	0.00	30.310 
18:55	25.0	25.0	25.0	66	15.3	0	2	315	0.00	30.310 
19:00	25.0	25.0	25.0	67	15.6	0	1	315	0.00	30.311 
19:05	25.0	25.0	25.0	66	15.3	0	1	315	0.00	30.312 
19:10	25.0	25.0	25.0	67	15.6	0	1	315	0.00	30.314 
19:15	24.8	24.8	24.8	67	15.4	0	2	315	0.00	30.316 
19:20	24.8	24.8	24.8	67	15.4	0	1	315	0.00	30.317 
19:25	24.7	24.7	24.7	68	15.7	0	1	315	0.00	30.320 
19:30	24.5	24.5	24.5	68	15.5	0	2	315	0.00	30.322 
19:35	24.4	24.4	24.4	68	15.4	0	1	270	0.00	30.324 
19:40	24.2	24.2	24.2	69	15.5	0	1	270	0.00	30.324 
19:45	24.1	24.1	24.1	69	15.4	0	1	270	0.00	30.326 
19:50	23.9	23.9	23.9	69	15.2	0	2	270	0.00	30.327 
19:55	23.6	23.6	23.6	69	14.9	0	1	270	0.00	30.332 
20:00	23.5	23.5	23.5	69	14.9	0	1	270	0.00	30.331 
20:05	23.3	23.3	23.3	70	15.0	0	3	270	0.00	30.329 
20:10	23.2	23.2	23.2	70	14.9	1	3	292	0.00	30.337 
20:15	23.2	23.2	23.2	70	14.9	0	2	248	0.00	30.337 
20:20	23.0	23.0	23.0	70	14.7	0	2	248	0.00	30.338 
20:25	22.7	22.7	22.7	70	14.4	0	1	248	0.00	30.339 
20:30	22.5	22.5	22.5	71	14.5	0	1	248	0.00	30.343 
20:35	22.4	22.4	22.4	71	14.4	0	2	248	0.00	30.344 
20:40	22.2	22.2	22.2	71	14.3	0	2	248	0.00	30.342 
20:45	22.1	22.1	22.1	71	14.2	0	1	248	0.00	30.342 
20:50	21.8	21.8	21.8	71	13.9	0	1	248	0.00	30.341 
20:55	21.4	21.4	21.4	71	13.5	0	1	248	0.00	30.341 
21:00	21.3	21.3	21.3	72	13.7	0	0	---	0.00	30.343 
21:05	21.0	21.0	21.0	72	13.4	0	1	248	0.00	30.341 
21:10	20.6	20.6	20.6	72	13.0	0	1	248	0.00	30.343 
21:15	20.5	20.5	20.5	73	13.2	0	1	248	0.00	30.343 
21:20	20.3	20.3	20.3	73	13.1	0	1	248	0.00	30.346 
21:25	20.2	20.2	20.2	73	13.0	0	0	---	0.00	30.345 
21:30	19.9	19.9	19.9	73	12.7	0	0	---	0.00	30.346 
21:35	19.5	19.5	19.5	74	12.6	0	0	---	0.00	30.348 
21:40	19.4	19.4	19.4	75	12.8	0	0	---	0.00	30.356 
21:45	19.2	19.2	19.2	75	12.6	0	0	---	0.00	30.356 
21:50	19.1	19.1	19.1	75	12.5	0	0	---	0.00	30.358 
21:55	19.1	19.1	19.1	76	12.8	0	0	---	0.00	30.358 
22:00	18.9	18.9	18.9	76	12.6	0	0	---	0.00	30.356 
22:05	18.8	18.8	18.8	76	12.5	0	0	---	0.00	30.357 
22:10	18.6	18.6	18.6	76	12.3	0	0	---	0.00	30.357 
22:15	18.3	18.3	18.3	76	12.0	0	0	---	0.00	30.356 
22:20	18.0	18.0	18.0	77	12.0	0	0	---	0.00	30.355 
22:25	17.8	17.8	17.8	77	11.8	0	0	---	0.00	30.357 
22:30	17.5	17.5	17.5	77	11.5	0	0	---	0.00	30.353 
22:35	17.3	17.3	17.3	78	11.6	0	0	---	0.00	30.353 
22:40	17.3	17.3	17.3	78	11.6	0	0	---	0.00	30.358 
22:45	17.3	17.3	17.3	78	11.6	0	0	---	0.00	30.356 
22:50	17.3	17.3	17.3	77	11.3	0	0	---	0.00	30.353 
22:55	17.3	17.3	17.3	77	11.3	0	1	248	0.00	30.351 
23:00	17.3	17.3	17.3	76	11.1	0	1	248	0.00	30.349 
23:05	17.3	17.3	17.3	76	11.1	0	1	248	0.00	30.349 
23:10	17.2	17.2	17.2	75	10.7	0	0	---	0.00	30.347 
23:15	16.9	16.9	16.9	75	10.4	0	0	---	0.00	30.345 
23:20	16.7	16.7	16.7	75	10.2	0	0	---	0.00	30.344 
23:25	16.4	16.4	16.4	75	9.9	0	0	---	0.00	30.344 
23:30	16.2	16.2	16.2	76	10.0	0	0	---	0.00	30.343 
23:35	15.9	15.9	15.9	76	9.7	0	0	---	0.00	30.343 
23:40	15.7	15.7	15.7	76	9.5	0	0	---	0.00	30.342 
23:45	15.4	15.4	15.4	77	9.5	0	0	---	0.00	30.344 
23:50	15.1	15.1	15.1	77	9.2	0	0	---	0.00	30.345 
23:55	14.9	14.9	14.9	78	9.3	0	0	---	0.00	30.345 

CoCoRaHS
IN-AL-39
A2 Web Hosting
Creative Commons License
GoDaddy
Look for:

loaded 2017-12-12 16:39:29 • last modified 2010-11-18 10:43:29
Privacy PolicyDisclaimer
• wx.awcolley.com is powered by PmWiki v.2002016 •
• all content (unless otherwise noted) © 2017 A W Colley